createdAt,value
2023-04-21T00:01:39.487Z,6.87
2023-04-21T00:04:08.254Z,6.87
2023-04-21T00:06:36.632Z,6.78
2023-04-21T00:09:05.430Z,6.92
2023-04-21T00:11:33.169Z,6.92
2023-04-21T00:14:00.860Z,6.85
2023-04-21T00:16:28.663Z,6.74
2023-04-21T00:18:58.084Z,6.72
2023-04-21T00:21:25.776Z,6.65
2023-04-21T00:23:53.448Z,6.69
2023-04-21T00:26:21.332Z,6.67
2023-04-21T00:28:48.990Z,6.60
2023-04-21T00:31:16.785Z,6.41
2023-04-21T00:33:44.532Z,6.31
2023-04-21T00:36:13.622Z,6.30
2023-04-21T00:38:41.287Z,6.17
2023-04-21T00:41:08.958Z,6.02
2023-04-21T00:43:36.730Z,5.88
2023-04-21T00:46:04.876Z,5.88
2023-04-21T00:48:32.615Z,5.73
2023-04-21T00:51:00.422Z,5.66
2023-04-21T00:53:29.972Z,5.65
2023-04-21T00:55:57.733Z,5.56
2023-04-21T00:58:25.459Z,5.52
2023-04-21T01:00:53.304Z,5.35
2023-04-21T01:03:21.246Z,5.34
2023-04-21T01:05:48.976Z,5.29
2023-04-21T01:08:17.034Z,5.24
2023-04-21T01:10:46.158Z,5.17
2023-04-21T01:13:14.225Z,4.97
2023-04-21T01:15:42.012Z,5.07
2023-04-21T01:18:09.725Z,5.01
2023-04-21T01:20:39.023Z,5.12
2023-04-21T01:23:08.219Z,5.20
2023-04-21T01:25:36.058Z,5.19
2023-04-21T01:28:03.901Z,5.20
2023-04-21T01:30:31.488Z,5.22
2023-04-21T01:33:00.705Z,5.29
2023-04-21T01:35:28.457Z,5.24
2023-04-21T01:37:56.257Z,5.27
2023-04-21T01:40:25.406Z,5.39
2023-04-21T01:42:53.146Z,5.26
2023-04-21T01:45:20.959Z,5.30
2023-04-21T01:47:48.599Z,5.29
2023-04-21T01:50:16.485Z,5.24
2023-04-21T01:52:44.116Z,5.19
2023-04-21T01:55:11.813Z,5.20
2023-04-21T01:57:41.083Z,5.10
2023-04-21T02:00:10.323Z,5.10
2023-04-21T02:02:38.320Z,5.01
2023-04-21T02:05:07.010Z,4.96
2023-04-21T02:07:34.795Z,4.98
2023-04-21T02:10:03.032Z,4.97
2023-04-21T02:12:30.888Z,5.10
2023-04-21T02:14:59.828Z,5.09
2023-04-21T02:17:27.567Z,5.18
2023-04-21T02:19:55.259Z,5.05
2023-04-21T02:22:23.132Z,5.14
2023-04-21T02:24:50.946Z,5.22
2023-04-21T02:27:18.613Z,5.18
2023-04-21T02:29:46.410Z,5.22
2023-04-21T02:32:25.102Z,5.24
2023-04-21T02:34:53.928Z,5.35
2023-04-21T02:37:22.122Z,5.44
2023-04-21T02:39:49.843Z,5.37
2023-04-21T02:42:17.482Z,5.26
2023-04-21T02:44:45.150Z,5.35
2023-04-21T02:47:12.896Z,5.56
2023-04-21T02:49:45.253Z,5.21
2023-04-21T02:52:13.123Z,5.17
2023-04-21T02:54:40.947Z,5.42
2023-04-21T02:57:08.647Z,5.98
2023-04-21T02:59:36.289Z,5.82
2023-04-21T03:02:04.291Z,5.66
2023-04-21T03:04:33.941Z,5.72
2023-04-21T03:07:03.169Z,5.96
2023-04-21T03:09:30.829Z,5.79
2023-04-21T03:11:58.458Z,6.25
2023-04-21T03:14:26.192Z,5.98
2023-04-21T03:16:53.915Z,6.48
2023-04-21T03:19:21.730Z,6.76
2023-04-21T03:21:49.565Z,6.78
2023-04-21T03:24:19.407Z,6.75
2023-04-21T03:26:47.104Z,6.77
2023-04-21T03:29:15.087Z,6.66
2023-04-21T03:31:42.876Z,6.83
2023-04-21T03:34:10.649Z,6.83
2023-04-21T03:36:38.420Z,6.93
2023-04-21T03:39:20.409Z,6.65
2023-04-21T03:41:49.816Z,6.55
2023-04-21T03:44:17.789Z,6.88
2023-04-21T03:46:45.516Z,6.89
2023-04-21T03:49:13.421Z,6.50
2023-04-21T03:51:41.195Z,6.89
2023-04-21T03:54:09.168Z,6.67
2023-04-21T03:56:37.054Z,6.30
2023-04-21T03:59:06.526Z,6.24
2023-04-21T04:01:35.475Z,5.91
2023-04-21T04:04:03.471Z,5.84
2023-04-21T04:06:32.059Z,5.87
2023-04-21T04:09:03.267Z,6.32
2023-04-21T04:11:31.101Z,6.75
2023-04-21T04:13:58.907Z,6.75
2023-04-21T04:16:28.880Z,6.69
2023-04-21T04:18:56.904Z,6.56
2023-04-21T04:21:24.622Z,6.19
2023-04-21T04:23:53.530Z,6.43
2023-04-21T04:26:22.591Z,6.55
2023-04-21T04:28:50.630Z,6.65
2023-04-21T04:31:18.669Z,6.45
2023-04-21T04:33:47.952Z,6.61
2023-04-21T04:36:15.821Z,6.40
2023-04-21T04:38:43.557Z,6.41
2023-04-21T04:41:12.835Z,6.62
2023-04-21T04:43:40.545Z,6.30
2023-04-21T04:46:09.481Z,6.13
2023-04-21T04:48:37.280Z,6.54
2023-04-21T04:51:06.908Z,6.40
2023-04-21T04:53:34.647Z,6.08
2023-04-21T04:56:03.177Z,6.14
2023-04-21T04:58:30.829Z,5.92
2023-04-21T05:00:58.700Z,5.89
2023-04-21T05:03:26.667Z,6.02
2023-04-21T05:05:54.519Z,6.00
2023-04-21T05:08:23.624Z,6.44
2023-04-21T05:10:51.304Z,6.40
2023-04-21T05:13:19.034Z,6.49
2023-04-21T05:15:46.707Z,6.16
2023-04-21T05:18:14.495Z,6.15
2023-04-21T05:20:42.493Z,5.90
2023-04-21T05:23:10.241Z,5.93
2023-04-21T05:25:39.503Z,6.29
2023-04-21T05:28:07.356Z,5.97
2023-04-21T05:30:35.203Z,6.33
2023-04-21T05:33:02.866Z,6.18
2023-04-21T05:35:31.640Z,6.20
2023-04-21T05:37:59.327Z,6.11
2023-04-21T05:40:27.043Z,5.87
2023-04-21T05:42:56.142Z,6.05
2023-04-21T05:45:23.914Z,6.02
2023-04-21T05:47:51.690Z,6.20
2023-04-21T05:50:19.513Z,5.83
2023-04-21T05:52:47.293Z,5.91
2023-04-21T05:55:15.331Z,6.43
2023-04-21T05:57:43.257Z,5.84
2023-04-21T06:00:13.827Z,6.48
2023-04-21T06:02:41.866Z,6.35
2023-04-21T06:05:10.567Z,6.16
2023-04-21T06:07:38.350Z,6.41
2023-04-21T06:10:07.219Z,6.24
2023-04-21T06:12:35.043Z,6.04
2023-04-21T06:15:02.885Z,6.01
2023-04-21T06:17:32.162Z,6.11
2023-04-21T06:19:59.852Z,6.04
2023-04-21T06:22:29.266Z,6.28
2023-04-21T06:24:58.285Z,6.38
2023-04-21T06:27:26.319Z,6.52
2023-04-21T06:29:56.099Z,6.63
2023-04-21T06:32:23.852Z,6.65
2023-04-21T06:34:52.945Z,6.64
2023-04-21T06:37:20.614Z,6.67
2023-04-21T06:39:48.331Z,6.54
2023-04-21T06:42:16.136Z,6.54
2023-04-21T06:44:43.876Z,6.55
2023-04-21T06:47:11.744Z,6.54
2023-04-21T06:49:39.612Z,6.31
2023-04-21T06:52:09.073Z,6.34
2023-04-21T06:54:37.094Z,6.50
2023-04-21T06:57:05.353Z,6.19
2023-04-21T06:59:33.105Z,6.51
2023-04-21T07:02:01.264Z,6.49
2023-04-21T07:04:32.160Z,6.68
2023-04-21T07:07:02.938Z,6.44
2023-04-21T07:09:33.879Z,6.98
2023-04-21T07:12:02.905Z,7.35
2023-04-21T07:14:30.885Z,7.86
2023-04-21T07:16:58.731Z,8.00
2023-04-21T07:19:26.945Z,8.55
2023-04-21T07:21:54.707Z,8.92
2023-04-21T07:24:28.303Z,9.75
2023-04-21T07:26:57.602Z,10.65
2023-04-21T07:29:25.393Z,10.47
2023-04-21T07:31:54.657Z,10.35
2023-04-21T07:34:23.756Z,11.29
2023-04-21T07:36:53.084Z,10.99
2023-04-21T07:39:21.369Z,11.81
2023-04-21T07:41:49.758Z,11.10
2023-04-21T07:44:18.999Z,12.03
2023-04-21T07:46:46.732Z,12.29
2023-04-21T07:49:14.518Z,12.50
2023-04-21T07:51:42.273Z,12.61
2023-04-21T07:54:10.230Z,12.94
2023-04-21T07:56:38.083Z,13.16
2023-04-21T07:59:05.870Z,12.69
2023-04-21T08:01:35.030Z,13.35
2023-04-21T08:04:02.896Z,14.24
2023-04-21T08:06:33.441Z,15.04
2023-04-21T08:09:01.566Z,13.72
2023-04-21T08:11:29.494Z,13.87
2023-04-21T08:13:57.600Z,13.18
2023-04-21T08:16:25.447Z,13.84
2023-04-21T08:18:54.695Z,14.59
2023-04-21T08:21:22.375Z,14.62
2023-04-21T08:23:50.970Z,15.69
2023-04-21T08:26:18.906Z,15.28
2023-04-21T08:28:48.738Z,15.55
2023-04-21T08:31:16.590Z,15.15
2023-04-21T08:33:58.055Z,15.12
2023-04-21T08:36:32.016Z,16.29
2023-04-21T08:39:00.430Z,17.02
2023-04-21T08:41:28.430Z,16.61
2023-04-21T08:43:56.210Z,15.32
2023-04-21T08:46:25.480Z,15.55
2023-04-21T08:48:55.288Z,14.77
2023-04-21T08:51:24.766Z,15.88
2023-04-21T08:53:55.820Z,16.39
2023-04-21T08:56:25.664Z,15.72
2023-04-21T08:58:53.499Z,15.33
2023-04-21T09:01:21.250Z,17.19
2023-04-21T09:03:49.197Z,16.74
2023-04-21T09:06:17.795Z,15.97
2023-04-21T09:08:56.451Z,14.91
2023-04-21T09:11:24.465Z,14.69
2023-04-21T09:13:53.040Z,15.47
2023-04-21T09:16:22.872Z,15.21
2023-04-21T09:18:51.792Z,15.73
2023-04-21T09:21:23.156Z,16.29
2023-04-21T09:23:52.212Z,15.25
2023-04-21T09:26:24.008Z,14.65
2023-04-21T09:28:53.701Z,15.50
2023-04-21T09:31:25.301Z,16.42
2023-04-21T09:33:58.821Z,16.23
2023-04-21T09:36:29.564Z,15.78
2023-04-21T09:41:31.702Z,16.19
2023-04-21T09:44:01.476Z,15.73
2023-04-21T09:46:31.432Z,16.90
2023-04-21T09:49:02.648Z,17.97
2023-04-21T09:51:56.389Z,17.12
2023-04-21T09:54:29.828Z,17.38
2023-04-21T09:57:02.413Z,17.01
2023-04-21T09:59:33.536Z,18.05
2023-04-21T10:02:02.263Z,17.39
2023-04-21T10:04:32.271Z,17.56
2023-04-21T10:07:01.286Z,16.94
2023-04-21T10:09:34.382Z,16.80
2023-04-21T10:12:05.953Z,17.10
2023-04-21T10:14:36.268Z,16.39
2023-04-21T10:17:06.118Z,17.30
2023-04-21T10:19:40.067Z,17.76
2023-04-21T10:22:08.597Z,18.10
2023-04-21T10:24:39.190Z,18.04
2023-04-21T10:27:11.406Z,17.53
2023-04-21T10:29:54.707Z,18.25
2023-04-21T10:32:41.763Z,19.40
2023-04-21T10:35:14.776Z,18.75
2023-04-21T10:37:43.597Z,18.83
2023-04-21T10:40:44.298Z,18.06
2023-04-21T10:43:49.747Z,19.18
2023-04-21T10:46:34.097Z,18.22
2023-04-21T10:49:10.172Z,17.95
2023-04-21T10:52:05.793Z,18.70
2023-04-21T10:54:41.657Z,18.05
2023-04-21T10:57:12.069Z,17.63
2023-04-21T10:59:41.734Z,17.55
2023-04-21T11:02:12.179Z,18.26
2023-04-21T11:04:45.306Z,18.76
2023-04-21T11:07:14.801Z,19.42
2023-04-21T11:09:43.512Z,17.97
2023-04-21T11:12:13.927Z,18.55
2023-04-21T11:14:44.305Z,18.65
2023-04-21T11:17:13.375Z,19.28
2023-04-21T11:19:41.514Z,18.43
2023-04-21T11:22:09.289Z,18.42
2023-04-21T11:24:37.026Z,18.71
2023-04-21T11:27:05.334Z,19.19
2023-04-21T11:29:34.204Z,19.72
2023-04-21T11:32:03.310Z,19.24
2023-04-21T11:34:31.092Z,18.11
2023-04-21T11:36:58.872Z,19.61
2023-04-21T11:39:26.485Z,20.27
2023-04-21T11:41:54.491Z,19.34
2023-04-21T11:44:33.673Z,19.09
2023-04-21T11:47:01.771Z,19.39
2023-04-21T11:49:32.311Z,19.31
2023-04-21T11:52:00.175Z,19.21
2023-04-21T11:54:30.419Z,19.62
2023-04-21T11:56:59.144Z,19.77
2023-04-21T11:59:29.594Z,20.25
2023-04-21T12:01:57.265Z,20.04
2023-04-21T12:04:27.473Z,20.68
2023-04-21T12:07:01.458Z,20.36
2023-04-21T12:09:30.748Z,20.95
2023-04-21T12:11:59.909Z,21.08
2023-04-21T12:14:27.833Z,20.67
2023-04-21T12:16:57.407Z,20.41
2023-04-21T12:19:26.637Z,19.57
2023-04-21T12:21:56.143Z,20.16
2023-04-21T12:24:26.040Z,20.79
2023-04-21T12:26:53.795Z,21.26
2023-04-21T12:29:21.577Z,19.83
2023-04-21T12:31:49.304Z,20.76
2023-04-21T12:34:17.356Z,21.07
2023-04-21T12:36:45.586Z,20.74
2023-04-21T12:39:14.179Z,21.09
2023-04-21T12:41:43.287Z,21.15
2023-04-21T12:44:10.970Z,20.67
2023-04-21T12:46:38.751Z,20.47
2023-04-21T12:49:07.613Z,21.42
2023-04-21T12:51:35.480Z,21.25
2023-04-21T12:54:03.458Z,21.35
2023-04-21T12:56:31.413Z,20.73
2023-04-21T12:59:00.558Z,20.61
2023-04-21T13:01:28.398Z,20.52
2023-04-21T13:03:56.205Z,21.15
2023-04-21T13:06:24.142Z,21.22
2023-04-21T13:08:52.136Z,22.30
2023-04-21T13:11:20.049Z,21.64
2023-04-21T13:13:47.784Z,21.09
2023-04-21T13:16:17.273Z,21.47
2023-04-21T13:18:46.391Z,21.19
2023-04-21T13:21:14.266Z,20.59
2023-04-21T13:23:42.442Z,21.36
2023-04-21T13:26:10.500Z,21.71
2023-04-21T13:28:38.639Z,21.33
2023-04-21T13:31:07.174Z,21.32
2023-04-21T13:33:36.480Z,21.84
2023-04-21T13:36:04.663Z,22.32
2023-04-21T13:38:33.348Z,22.23
2023-04-21T13:41:01.220Z,20.91
2023-04-21T13:43:29.202Z,22.32
2023-04-21T13:45:58.823Z,20.82
2023-04-21T13:48:26.686Z,21.94
2023-04-21T13:50:55.901Z,20.87
2023-04-21T13:53:23.665Z,21.18
2023-04-21T13:55:52.829Z,21.66
2023-04-21T13:58:20.958Z,20.45
2023-04-21T14:00:48.716Z,21.54
2023-04-21T14:03:16.776Z,22.24
2023-04-21T14:05:44.842Z,22.26
2023-04-21T14:08:13.961Z,22.04
2023-04-21T14:10:41.739Z,22.95
2023-04-21T14:13:12.817Z,22.65
2023-04-21T14:15:45.369Z,22.79
2023-04-21T14:18:13.253Z,23.33
2023-04-21T14:20:40.987Z,22.01
2023-04-21T14:23:08.648Z,23.26
2023-04-21T14:25:37.973Z,22.70
2023-04-21T14:28:07.406Z,22.56
2023-04-21T14:30:36.180Z,22.77
2023-04-21T14:33:04.039Z,22.87
2023-04-21T14:35:32.036Z,22.49
2023-04-21T14:38:00.025Z,22.75
2023-04-21T14:40:27.787Z,22.32
2023-04-21T14:42:56.870Z,21.82
2023-04-21T14:45:24.803Z,22.46
2023-04-21T14:47:52.725Z,22.82
2023-04-21T14:50:20.696Z,22.59
2023-04-21T14:52:49.717Z,22.63
2023-04-21T14:55:17.909Z,22.76
2023-04-21T14:57:46.964Z,21.54
2023-04-21T15:00:16.981Z,21.89
2023-04-21T15:02:44.812Z,21.97
2023-04-21T15:05:12.818Z,21.98
2023-04-21T15:07:40.939Z,22.22
2023-04-21T15:10:11.203Z,21.96
2023-04-21T15:12:39.534Z,21.75
2023-04-21T15:15:08.486Z,21.42
2023-04-21T15:17:37.675Z,21.73
2023-04-21T15:20:06.611Z,21.64
2023-04-21T15:22:34.668Z,21.66
2023-04-21T15:25:02.493Z,21.73
2023-04-21T15:27:30.344Z,21.26
2023-04-21T15:29:58.424Z,21.10
2023-04-21T15:32:26.368Z,20.75
2023-04-21T15:34:55.570Z,20.34
2023-04-21T15:37:25.676Z,20.26
2023-04-21T15:39:53.841Z,20.34
2023-04-21T15:42:21.704Z,20.18
2023-04-21T15:44:49.553Z,20.40
2023-04-21T15:47:17.394Z,20.24
2023-04-21T15:49:45.408Z,20.06
2023-04-21T15:52:14.757Z,19.71
2023-04-21T15:54:42.560Z,19.37
2023-04-21T15:57:10.189Z,19.30
2023-04-21T15:59:37.983Z,19.54
2023-04-21T16:02:05.798Z,19.76
2023-04-21T16:04:33.868Z,19.43
2023-04-21T16:07:01.767Z,19.65
2023-04-21T16:09:30.887Z,19.60
2023-04-21T16:11:58.771Z,19.31
2023-04-21T16:14:26.505Z,19.20
2023-04-21T16:16:54.301Z,18.91
2023-04-21T16:19:22.039Z,18.79
2023-04-21T16:21:50.659Z,18.16
2023-04-21T16:24:18.582Z,17.09
2023-04-21T16:26:47.743Z,15.65
2023-04-21T16:29:15.441Z,15.10
2023-04-21T16:31:43.209Z,14.86
2023-04-21T16:34:13.714Z,14.75
2023-04-21T16:36:41.619Z,14.76
2023-04-21T16:39:09.354Z,15.09
2023-04-21T16:41:37.242Z,14.73
2023-04-21T16:44:06.341Z,15.54
2023-04-21T16:46:34.560Z,15.61
2023-04-21T16:49:02.423Z,15.71
2023-04-21T16:51:30.961Z,15.64
2023-04-21T16:53:58.724Z,15.69
2023-04-21T16:56:26.641Z,15.76
2023-04-21T16:58:54.651Z,15.60
2023-04-21T17:01:23.850Z,16.00
2023-04-21T17:03:51.711Z,15.83
2023-04-21T17:06:21.020Z,15.83
2023-04-21T17:08:49.281Z,16.04
2023-04-21T17:11:17.115Z,15.84
2023-04-21T17:13:44.974Z,15.66
2023-04-21T17:16:12.906Z,15.66
2023-04-21T17:18:42.280Z,15.48
2023-04-21T17:21:10.114Z,15.13
2023-04-21T17:23:37.883Z,15.53
2023-04-21T17:26:06.403Z,15.44
2023-04-21T17:28:34.172Z,15.12
2023-04-21T17:31:14.511Z,15.01
2023-04-21T17:33:44.690Z,14.82
2023-04-21T17:36:12.565Z,14.81
2023-04-21T17:38:41.800Z,14.47
2023-04-21T17:41:09.572Z,14.37
2023-04-21T17:43:37.660Z,14.39
2023-04-21T17:46:06.929Z,14.33
2023-04-21T17:48:35.128Z,14.28
2023-04-21T17:51:04.663Z,14.19
2023-04-21T17:53:32.626Z,14.29
2023-04-21T17:56:01.025Z,14.25
2023-04-21T17:58:29.523Z,14.08
2023-04-21T18:00:57.486Z,14.02
2023-04-21T18:03:25.684Z,14.01
2023-04-21T18:05:53.539Z,13.99
2023-04-21T18:08:22.749Z,13.89
2023-04-21T18:10:50.499Z,13.79
2023-04-21T18:13:18.813Z,13.63
2023-04-21T18:15:46.910Z,13.36
2023-04-21T18:18:14.719Z,13.23
2023-04-21T18:20:43.017Z,12.95
2023-04-21T18:23:11.347Z,12.88
2023-04-21T18:25:43.210Z,12.84
2023-04-21T18:28:12.549Z,12.86
2023-04-21T18:30:42.191Z,12.69
2023-04-21T18:33:10.997Z,12.67
2023-04-21T18:35:39.128Z,12.56
2023-04-21T18:38:08.293Z,12.41
2023-04-21T18:40:37.407Z,12.48
2023-04-21T18:43:06.684Z,12.39
2023-04-21T18:45:34.931Z,12.36
2023-04-21T18:48:03.001Z,12.55
2023-04-21T18:50:32.298Z,12.61
2023-04-21T18:52:59.987Z,12.55
2023-04-21T18:55:27.814Z,12.65
2023-04-21T18:57:55.668Z,12.49
2023-04-21T19:00:26.174Z,12.49
2023-04-21T19:02:54.361Z,12.42
2023-04-21T19:05:22.299Z,12.48
2023-04-21T19:07:50.074Z,12.22
2023-04-21T19:10:18.153Z,12.37
2023-04-21T19:12:45.945Z,12.24
2023-04-21T19:15:13.978Z,12.14
2023-04-21T19:17:43.237Z,12.09
2023-04-21T19:20:12.758Z,12.46
2023-04-21T19:22:40.602Z,12.68
2023-04-21T19:25:08.847Z,12.91
2023-04-21T19:27:37.021Z,12.86
2023-04-21T19:30:05.950Z,12.74
2023-04-21T19:32:34.062Z,12.59
2023-04-21T19:35:03.353Z,12.67
2023-04-21T19:37:34.424Z,12.83
2023-04-21T19:40:03.385Z,12.95
2023-04-21T19:42:31.333Z,12.89
2023-04-21T19:44:59.276Z,12.68
2023-04-21T19:47:27.317Z,12.60
2023-04-21T19:49:55.053Z,12.44
2023-04-21T19:52:24.120Z,12.13
2023-04-21T19:54:51.896Z,12.51
2023-04-21T19:57:19.685Z,12.25
2023-04-21T19:59:49.028Z,12.07
2023-04-21T20:02:17.077Z,12.35
2023-04-21T20:04:44.919Z,12.39
2023-04-21T20:07:12.618Z,12.51
2023-04-21T20:09:41.753Z,12.41
2023-04-21T20:12:09.723Z,12.39
2023-04-21T20:14:39.001Z,12.26
2023-04-21T20:17:06.759Z,12.10
2023-04-21T20:19:35.734Z,12.00
2023-04-21T20:22:03.799Z,11.87
2023-04-21T20:24:31.468Z,11.99
2023-04-21T20:27:00.505Z,11.86
2023-04-21T20:29:28.177Z,11.95
2023-04-21T20:31:57.406Z,11.96
2023-04-21T20:34:25.585Z,11.82
2023-04-21T20:36:54.856Z,11.84
2023-04-21T20:39:23.071Z,11.79
2023-04-21T20:42:00.993Z,11.73
2023-04-21T20:44:38.710Z,11.53
2023-04-21T20:47:08.178Z,11.46
2023-04-21T20:49:36.351Z,11.51
2023-04-21T20:52:04.089Z,11.36
2023-04-21T20:54:34.440Z,11.26
2023-04-21T20:57:02.645Z,11.27
2023-04-21T20:59:30.629Z,11.23
2023-04-21T21:01:59.754Z,11.27
2023-04-21T21:04:27.587Z,11.25
2023-04-21T21:06:56.045Z,11.16
2023-04-21T21:09:24.069Z,11.25
2023-04-21T21:11:51.794Z,11.09
2023-04-21T21:14:19.513Z,10.95
2023-04-21T21:16:47.307Z,11.13
2023-04-21T21:19:16.508Z,11.12
2023-04-21T21:21:44.214Z,10.96
2023-04-21T21:24:11.846Z,10.90
2023-04-21T21:26:42.498Z,10.89
2023-04-21T21:29:10.669Z,11.01
2023-04-21T21:31:38.870Z,10.93
2023-04-21T21:34:06.821Z,10.95
2023-04-21T21:36:36.125Z,11.04
2023-04-21T21:39:03.808Z,11.01
2023-04-21T21:41:31.530Z,11.12
2023-04-21T21:43:59.137Z,11.07
2023-04-21T21:46:26.891Z,11.00
2023-04-21T21:48:54.756Z,11.09
2023-04-21T21:51:22.397Z,11.06
2023-04-21T21:53:51.421Z,11.15
2023-04-21T21:56:19.149Z,11.11
2023-04-21T21:58:46.973Z,11.25
2023-04-21T22:01:18.053Z,11.48
2023-04-21T22:03:47.366Z,11.27
2023-04-21T22:06:17.170Z,11.17
2023-04-21T22:08:45.603Z,11.20
2023-04-21T22:11:14.758Z,11.21
2023-04-21T22:13:42.423Z,11.10
2023-04-21T22:16:10.303Z,11.13
2023-04-21T22:18:38.142Z,11.15
2023-04-21T22:21:06.296Z,11.07
2023-04-21T22:23:34.073Z,10.96
2023-04-21T22:26:01.865Z,10.97
2023-04-21T22:28:30.968Z,10.93
2023-04-21T22:30:58.783Z,11.01
2023-04-21T22:33:26.581Z,11.05
2023-04-21T22:35:54.256Z,11.12
2023-04-21T22:38:21.987Z,11.06
2023-04-21T22:40:49.932Z,11.16
2023-04-21T22:43:17.682Z,11.20
2023-04-21T22:45:46.774Z,11.17
2023-04-21T22:48:14.901Z,11.10
2023-04-21T22:50:44.766Z,11.13
2023-04-21T22:53:13.337Z,11.24
2023-04-21T22:55:41.095Z,11.41
2023-04-21T22:58:08.937Z,11.48
2023-04-21T23:00:36.771Z,11.22
2023-04-21T23:03:06.013Z,11.15
2023-04-21T23:05:33.809Z,11.17
2023-04-21T23:08:01.681Z,11.29
2023-04-21T23:10:30.231Z,11.05
2023-04-21T23:12:58.139Z,10.97
2023-04-21T23:15:27.151Z,10.72
2023-04-21T23:17:54.947Z,11.04
2023-04-21T23:20:24.011Z,10.87
2023-04-21T23:22:52.229Z,10.86
2023-04-21T23:25:20.195Z,10.90
2023-04-21T23:27:47.841Z,11.19
2023-04-21T23:30:15.789Z,11.30
2023-04-21T23:32:43.687Z,11.29
2023-04-21T23:35:11.513Z,11.08
2023-04-21T23:37:40.858Z,11.15
2023-04-21T23:40:11.238Z,11.14
2023-04-21T23:42:39.401Z,11.07
2023-04-21T23:45:08.751Z,10.88
2023-04-21T23:47:36.433Z,10.78
2023-04-21T23:50:04.579Z,10.76
2023-04-21T23:52:32.418Z,10.74
2023-04-21T23:55:01.404Z,10.76
2023-04-21T23:57:29.107Z,10.82
2023-04-21T23:59:56.758Z,10.82
